Time;durP1;ratioP1;P1;durP2;ratioP2;P2;SDS_P1;SDS_P2;PMS_P1;PMS_P2;Temp;Humidity;BMP_temperature;BMP_pressure;BME280_temperature;BME280_humidity;BME280_pressure;Samples;Min_cycle;Max_cycle;Signal;HPM_P1;HPM_P2
2021/12/23 00:24:36;;;;;;;16.20;6.10;;;0.60;99.90;;;;;;5758176;22;20473;-37
2021/12/23 00:27:05;;;;;;;14.47;6.10;;;0.60;99.90;;;;;;5100803;28;20415;-48
2021/12/23 00:29:32;;;;;;;15.27;6.53;;;0.50;99.90;;;;;;5095514;28;20436;-55
2021/12/23 00:31:59;;;;;;;13.90;5.70;;;0.90;99.90;;;;;;5084009;28;20877;-58
2021/12/23 00:34:26;;;;;;;13.60;7.00;;;0.60;99.90;;;;;;5084006;28;20479;-55
2021/12/23 00:36:57;;;;;;;10.60;5.20;;;0.60;99.90;;;;;;5084474;28;20470;-56
2021/12/23 00:39:25;;;;;;;7.67;6.87;;;0.60;99.90;;;;;;5083400;28;20450;-57
2021/12/23 00:41:55;;;;;;;14.90;8.20;;;0.60;99.90;;;;;;5083753;28;20454;-58
2021/12/23 00:44:22;;;;;;;11.53;6.90;;;0.60;99.90;;;;;;5083961;28;20440;-62
2021/12/23 00:46:48;;;;;;;5.67;5.07;;;0.50;99.90;;;;;;5085532;28;20454;-54
2021/12/23 00:49:15;;;;;;;12.33;6.43;;;0.50;99.90;;;;;;5084958;28;20438;-59
2021/12/23 00:51:42;;;;;;;8.87;4.60;;;0.40;99.90;;;;;;5084190;28;20462;-56
2021/12/23 00:54:08;;;;;;;7.70;4.70;;;0.50;99.90;;;;;;5084253;28;20469;-60
2021/12/23 00:56:37;;;;;;;8.10;5.90;;;0.50;99.90;;;;;;5084308;28;20469;-59
2021/12/23 00:59:08;;;;;;;15.70;4.90;;;0.50;99.90;;;;;;5084221;28;20442;-55
2021/12/23 01:01:35;;;;;;;9.20;5.70;;;0.50;99.90;;;;;;5083789;28;20460;-59
2021/12/23 01:04:02;;;;;;;8.90;5.17;;;0.60;99.90;;;;;;5084088;28;20462;-60
2021/12/23 01:06:28;;;;;;;10.03;3.90;;;0.50;99.90;;;;;;5084028;28;20486;-53
2021/12/23 01:08:55;;;;;;;12.93;5.70;;;0.50;99.90;;;;;;5085082;28;20441;-59
2021/12/23 01:11:24;;;;;;;9.83;6.30;;;0.50;99.90;;;;;;5085428;28;20450;-56
2021/12/23 01:14:01;;;;;;;9.53;5.67;;;0.50;99.90;;;;;;5084815;28;20452;-59
2021/12/23 01:16:48;;;;;;;13.77;6.50;;;0.50;99.90;;;;;;5084616;28;20447;-58
2021/12/23 01:19:15;;;;;;;5.43;4.60;;;0.40;99.90;;;;;;5084720;28;20534;-58
2021/12/23 01:21:42;;;;;;;7.77;4.40;;;0.50;99.90;;;;;;5084568;28;20472;-58
2021/12/23 01:24:10;;;;;;;14.83;4.43;;;0.50;99.90;;;;;;5083633;28;20545;-57
2021/12/23 01:26:38;;;;;;;11.30;4.23;;;0.50;99.90;;;;;;5084164;28;20478;-58
2021/12/23 01:29:08;;;;;;;14.87;7.80;;;0.40;99.90;;;;;;5082787;28;20485;-57
2021/12/23 01:31:38;;;;;;;9.17;3.93;;;0.40;99.90;;;;;;5083802;28;20452;-58
2021/12/23 01:34:05;;;;;;;16.33;8.53;;;0.30;99.90;;;;;;5083702;28;20461;-58
2021/12/23 01:36:32;;;;;;;9.17;5.13;;;0.30;99.90;;;;;;5083536;28;20445;-59
2021/12/23 01:38:59;;;;;;;7.97;5.50;;;0.30;99.90;;;;;;5084260;28;20462;-56
2021/12/23 01:41:28;;;;;;;11.83;3.87;;;0.30;99.90;;;;;;5082795;28;20470;-59
2021/12/23 01:43:55;;;;;;;5.77;4.67;;;0.20;99.90;;;;;;5083582;28;20457;-58
2021/12/23 01:46:22;;;;;;;9.17;5.30;;;0.30;99.90;;;;;;5084180;28;20615;-59
2021/12/23 01:48:51;;;;;;;7.60;4.50;;;0.30;99.90;;;;;;5084420;28;20477;-59
2021/12/23 01:51:18;;;;;;;8.47;4.40;;;0.20;99.90;;;;;;5083548;28;20450;-59
2021/12/23 01:53:45;;;;;;;14.17;8.97;;;0.30;99.90;;;;;;5082164;28;20444;-59
2021/12/23 01:56:12;;;;;;;14.63;5.17;;;0.30;99.90;;;;;;5082124;28;20848;-59
2021/12/23 01:58:40;;;;;;;10.97;5.20;;;0.40;99.90;;;;;;5081957;28;21023;-59
2021/12/23 02:01:09;;;;;;;8.17;6.13;;;0.40;99.90;;;;;;5082747;28;20441;-54
2021/12/23 02:03:37;;;;;;;11.43;7.23;;;0.40;99.90;;;;;;5083686;28;20470;-59
2021/12/23 02:06:05;;;;;;;7.57;5.00;;;0.40;99.90;;;;;;5082280;28;20479;-59
2021/12/23 02:08:32;;;;;;;6.10;4.60;;;0.30;99.90;;;;;;5082642;28;20462;-58
2021/12/23 02:10:59;;;;;;;11.00;4.70;;;0.40;99.90;;;;;;5082683;28;20449;-56
2021/12/23 02:13:26;;;;;;;9.70;5.40;;;0.40;99.90;;;;;;5081752;28;20436;-59
2021/12/23 02:15:53;;;;;;;13.73;4.57;;;0.30;99.90;;;;;;5082718;28;20533;-56
2021/12/23 02:18:21;;;;;;;8.97;5.33;;;0.30;99.90;;;;;;5082996;28;20464;-60
2021/12/23 02:20:49;;;;;;;6.03;3.67;;;0.30;99.90;;;;;;5082707;28;20497;-57
2021/12/23 02:23:16;;;;;;;14.07;5.17;;;0.20;99.90;;;;;;5082673;28;20476;-61
2021/12/23 02:25:44;;;;;;;11.03;5.03;;;0.20;99.90;;;;;;5082210;28;20485;-60
2021/12/23 02:28:15;;;;;;;16.63;5.80;;;0.20;99.90;;;;;;5082021;28;20460;-60
2021/12/23 02:30:41;;;;;;;15.90;6.27;;;0.30;99.90;;;;;;5081865;28;20466;-57
2021/12/23 02:33:09;;;;;;;7.03;5.00;;;0.20;99.90;;;;;;5082488;28;20437;-57
2021/12/23 02:35:36;;;;;;;8.90;5.60;;;0.20;99.90;;;;;;5081653;28;20453;-58
2021/12/23 02:38:06;;;;;;;12.87;5.50;;;0.30;99.90;;;;;;5082225;28;20451;-60
2021/12/23 02:40:35;;;;;;;6.07;5.40;;;0.30;99.90;;;;;;5081536;28;20468;-60
2021/12/23 02:43:12;;;;;;;9.27;6.07;;;0.30;99.90;;;;;;5081800;28;20469;-59
2021/12/23 02:45:43;;;;;;;6.50;4.63;;;0.20;99.90;;;;;;5083114;28;20467;-58
2021/12/23 02:48:15;;;;;;;4.37;2.80;;;0.10;99.90;;;;;;5083446;28;20534;-59
2021/12/23 02:50:42;;;;;;;10.80;6.33;;;0.20;99.90;;;;;;5082505;28;20448;-59
2021/12/23 02:53:10;;;;;;;8.77;4.67;;;0.20;99.90;;;;;;5082352;28;20469;-59
2021/12/23 02:55:37;;;;;;;10.13;5.20;;;0.20;99.90;;;;;;5082642;28;20445;-59
2021/12/23 02:58:05;;;;;;;7.70;5.27;;;0.20;99.90;;;;;;5082066;28;20442;-60
2021/12/23 03:00:33;;;;;;;6.13;4.57;;;0.20;99.90;;;;;;5081822;28;20445;-56
2021/12/23 03:03:00;;;;;;;11.80;5.53;;;0.20;99.90;;;;;;5085229;28;20478;-59
2021/12/23 03:05:27;;;;;;;9.50;4.07;;;0.20;99.90;;;;;;5087002;28;20485;-59
2021/12/23 03:07:53;;;;;;;12.97;6.60;;;0.30;99.90;;;;;;5085423;28;20918;-58
2021/12/23 03:10:22;;;;;;;10.23;5.90;;;0.20;99.90;;;;;;5086117;28;20466;-54
2021/12/23 03:12:49;;;;;;;13.17;5.57;;;0.20;99.90;;;;;;5086042;28;20441;-60
2021/12/23 03:15:15;;;;;;;7.00;5.17;;;0.20;99.90;;;;;;5086060;28;20542;-60
2021/12/23 03:17:42;;;;;;;11.37;8.50;;;0.20;99.90;;;;;;5086251;28;20524;-55
2021/12/23 03:20:10;;;;;;;49.07;8.93;;;0.20;99.90;;;;;;5087002;28;20460;-56
2021/12/23 03:22:37;;;;;;;6.57;5.43;;;0.30;99.90;;;;;;5087517;28;20452;-61
2021/12/23 03:25:04;;;;;;;12.10;8.53;;;0.40;99.90;;;;;;5087155;28;20454;-60
2021/12/23 03:27:32;;;;;;;11.23;5.13;;;0.30;99.90;;;;;;5086586;28;20471;-59
2021/12/23 03:29:59;;;;;;;12.57;5.23;;;0.30;99.90;;;;;;5086349;28;20564;-60
2021/12/23 03:32:25;;;;;;;12.47;5.73;;;0.40;99.90;;;;;;5085462;28;20477;-59
2021/12/23 03:34:52;;;;;;;8.93;5.10;;;0.40;99.90;;;;;;5086088;28;20974;-58
2021/12/23 03:37:19;;;;;;;14.30;7.03;;;0.40;99.90;;;;;;5085057;28;20464;-58
2021/12/23 03:39:50;;;;;;;16.50;7.80;;;0.50;99.90;;;;;;5085458;28;20885;-57
2021/12/23 03:42:17;;;;;;;13.87;6.50;;;0.40;99.90;;;;;;5086435;28;20466;-58
2021/12/23 03:44:46;;;;;;;14.07;6.00;;;0.40;99.90;;;;;;5086313;28;20905;-58
2021/12/23 03:47:13;;;;;;;10.97;6.70;;;0.30;99.90;;;;;;5086273;28;20492;-59
2021/12/23 03:49:39;;;;;;;16.57;5.47;;;0.20;99.90;;;;;;5087078;28;20560;-59
2021/12/23 03:52:06;;;;;;;10.30;6.37;;;0.20;99.90;;;;;;5088479;28;20944;-59
2021/12/23 03:54:33;;;;;;;8.67;5.20;;;0.20;99.90;;;;;;5090188;28;20474;-60
2021/12/23 03:57:00;;;;;;;13.20;6.13;;;0.20;99.90;;;;;;5090563;28;20460;-59
2021/12/23 03:59:26;;;;;;;11.60;8.23;;;0.20;99.90;;;;;;5090002;28;20449;-56
2021/12/23 04:01:55;;;;;;;14.83;4.53;;;0.20;99.90;;;;;;5090049;28;20454;-55
2021/12/23 04:04:21;;;;;;;10.33;5.50;;;0.10;99.90;;;;;;5088959;28;20457;-60
2021/12/23 04:06:48;;;;;;;12.27;6.13;;;0.20;99.90;;;;;;5089271;28;20471;-60
2021/12/23 04:09:15;;;;;;;7.90;5.20;;;0.20;99.90;;;;;;5089275;28;20468;-56
2021/12/23 04:11:42;;;;;;;10.83;5.73;;;0.20;99.90;;;;;;5088986;28;20470;-58
2021/12/23 04:14:08;;;;;;;15.90;9.77;;;0.30;99.90;;;;;;5088611;28;20457;-59
2021/12/23 04:16:35;;;;;;;8.07;4.17;;;0.30;99.90;;;;;;5089066;28;20467;-59
2021/12/23 04:19:07;;;;;;;8.90;4.00;;;0.30;99.90;;;;;;5088194;28;20955;-60
2021/12/23 04:21:33;;;;;;;9.27;5.57;;;0.30;99.90;;;;;;5089001;28;20469;-58
2021/12/23 04:24:00;;;;;;;18.73;6.73;;;0.20;99.90;;;;;;5088392;28;20451;-56
2021/12/23 04:26:27;;;;;;;13.10;6.00;;;0.20;99.90;;;;;;5088273;28;20497;-60
2021/12/23 04:28:54;;;;;;;12.97;6.67;;;0.20;99.90;;;;;;5088787;28;20484;-60
2021/12/23 04:31:23;;;;;;;8.50;6.83;;;0.20;99.90;;;;;;5089071;28;20466;-60
2021/12/23 04:33:51;;;;;;;9.30;5.40;;;0.20;99.90;;;;;;5088534;28;20492;-59
2021/12/23 04:36:20;;;;;;;12.33;7.17;;;0.20;99.90;;;;;;5088635;28;20839;-59
2021/12/23 04:38:47;;;;;;;23.30;6.63;;;0.20;99.90;;;;;;5089227;28;20469;-62
2021/12/23 04:41:15;;;;;;;14.00;6.63;;;0.20;99.90;;;;;;5088852;28;20463;-60
2021/12/23 04:43:42;;;;;;;16.33;5.10;;;0.20;99.90;;;;;;5087699;28;20485;-59
2021/12/23 04:46:09;;;;;;;9.17;4.27;;;0.20;99.90;;;;;;5088256;28;20541;-59
2021/12/23 04:48:36;;;;;;;10.20;7.13;;;0.20;99.90;;;;;;5088550;28;20452;-59
2021/12/23 04:51:03;;;;;;;10.70;6.13;;;0.30;99.90;;;;;;5088154;28;20465;-57
2021/12/23 04:53:31;;;;;;;8.27;7.27;;;0.40;99.90;;;;;;5087098;28;20466;-58
2021/12/23 04:55:58;;;;;;;17.17;6.77;;;0.40;99.90;;;;;;5087910;28;20532;-59
2021/12/23 04:58:25;;;;;;;13.20;6.90;;;0.40;99.90;;;;;;5087156;28;20457;-60
2021/12/23 05:00:52;;;;;;;12.00;6.17;;;0.40;99.90;;;;;;5087400;28;20478;-58
2021/12/23 05:03:20;;;;;;;10.87;6.63;;;0.40;99.90;;;;;;5087680;28;20474;-59
2021/12/23 05:05:47;;;;;;;7.23;4.13;;;0.50;99.90;;;;;;5088745;28;20484;-61
2021/12/23 05:08:15;;;;;;;11.37;7.37;;;0.40;99.90;;;;;;5087863;28;20490;-60
2021/12/23 05:10:45;;;;;;;14.47;7.67;;;0.40;99.90;;;;;;5087646;28;20459;-56
2021/12/23 05:13:13;;;;;;;19.67;7.73;;;0.50;99.90;;;;;;5087417;28;20473;-60
2021/12/23 05:15:41;;;;;;;16.87;8.63;;;0.40;99.90;;;;;;5087905;28;20457;-58
2021/12/23 05:18:08;;;;;;;18.13;6.20;;;0.40;99.90;;;;;;5087074;28;20510;-59
2021/12/23 05:20:36;;;;;;;10.50;7.40;;;0.40;99.90;;;;;;5087479;28;20499;-59
2021/12/23 05:23:03;;;;;;;11.17;5.03;;;0.40;99.90;;;;;;5087512;28;20462;-60
2021/12/23 05:25:29;;;;;;;11.00;5.77;;;0.40;99.90;;;;;;5086740;28;20524;-60
2021/12/23 05:28:00;;;;;;;15.60;7.03;;;0.40;99.90;;;;;;5087906;28;20443;-58
2021/12/23 05:30:27;;;;;;;18.80;7.07;;;0.40;99.90;;;;;;5088536;28;20511;-59
2021/12/23 05:32:54;;;;;;;12.33;5.73;;;0.40;99.90;;;;;;5089042;28;20465;-59
2021/12/23 05:35:22;;;;;;;13.57;6.50;;;0.40;99.90;;;;;;5087523;28;20469;-59
2021/12/23 05:37:49;;;;;;;14.73;6.70;;;0.30;99.90;;;;;;5087284;28;20476;-59
2021/12/23 05:40:17;;;;;;;9.33;4.80;;;0.40;99.90;;;;;;5087247;28;20477;-60
2021/12/23 05:42:45;;;;;;;12.23;6.57;;;0.40;99.90;;;;;;5087480;28;20463;-58
2021/12/23 05:45:14;;;;;;;18.03;8.03;;;0.40;99.90;;;;;;5086954;28;20454;-59
2021/12/23 05:47:42;;;;;;;13.37;5.47;;;0.40;99.90;;;;;;5086192;28;20473;-57
2021/12/23 05:50:10;;;;;;;10.13;6.77;;;0.40;99.90;;;;;;5086165;28;20532;-59
2021/12/23 05:52:38;;;;;;;13.47;7.73;;;0.40;99.90;;;;;;5086800;28;20451;-60
2021/12/23 05:55:06;;;;;;;8.67;6.77;;;0.40;99.90;;;;;;5087395;28;20499;-60
2021/12/23 05:57:33;;;;;;;11.37;5.90;;;0.50;99.90;;;;;;5086640;28;20462;-61
2021/12/23 06:00:00;;;;;;;8.93;7.47;;;0.50;99.90;;;;;;5087380;28;20459;-61
2021/12/23 06:02:28;;;;;;;20.50;8.87;;;0.50;99.90;;;;;;5087848;28;20455;-61
2021/12/23 06:04:55;;;;;;;9.00;5.93;;;0.50;99.90;;;;;;5087188;28;20462;-59
2021/12/23 06:07:22;;;;;;;10.77;6.47;;;0.60;99.90;;;;;;5086957;28;20478;-58
2021/12/23 06:09:49;;;;;;;15.60;6.70;;;0.50;99.90;;;;;;5087039;28;20905;-60
2021/12/23 06:12:15;;;;;;;13.10;6.77;;;0.60;99.90;;;;;;5086505;28;20454;-56
2021/12/23 06:14:42;;;;;;;12.57;6.70;;;0.60;99.90;;;;;;5085433;28;20466;-56
2021/12/23 06:17:09;;;;;;;8.63;5.23;;;0.60;99.90;;;;;;5085386;28;20797;-59
2021/12/23 06:19:37;;;;;;;6.20;5.23;;;0.60;99.90;;;;;;5085920;28;20469;-60
2021/12/23 06:22:04;;;;;;;16.40;6.97;;;0.60;99.90;;;;;;5086032;28;20443;-57
2021/12/23 06:24:31;;;;;;;7.13;5.53;;;0.70;99.90;;;;;;5085511;28;20466;-60
2021/12/23 06:26:58;;;;;;;7.03;6.20;;;0.70;99.90;;;;;;5085368;28;20481;-54
2021/12/23 06:29:25;;;;;;;12.10;5.43;;;0.80;99.90;;;;;;5085565;28;20447;-58
2021/12/23 06:31:52;;;;;;;15.00;5.87;;;0.80;99.90;;;;;;5084988;28;20450;-55
2021/12/23 06:34:18;;;;;;;15.57;6.90;;;0.80;99.90;;;;;;5085383;28;20438;-59
2021/12/23 06:36:47;;;;;;;15.43;7.23;;;0.70;99.90;;;;;;5085728;28;20480;-60
2021/12/23 06:39:13;;;;;;;17.80;7.93;;;0.70;99.90;;;;;;5085363;28;20459;-54
2021/12/23 06:41:40;;;;;;;13.03;6.57;;;0.70;99.90;;;;;;5085587;28;20477;-59
2021/12/23 06:44:07;;;;;;;8.93;5.77;;;0.80;99.90;;;;;;5085649;28;20443;-58
2021/12/23 06:46:34;;;;;;;17.87;6.93;;;0.80;99.90;;;;;;5086615;28;20472;-59
2021/12/23 06:49:00;;;;;;;12.57;6.63;;;0.80;99.90;;;;;;5086989;28;20753;-59
2021/12/23 06:51:27;;;;;;;13.83;7.00;;;0.70;99.90;;;;;;5086189;28;20447;-59
2021/12/23 06:53:57;;;;;;;12.53;7.03;;;0.70;99.90;;;;;;5085716;28;20447;-59
2021/12/23 06:56:24;;;;;;;14.73;8.70;;;0.70;99.90;;;;;;5086326;28;20458;-58
2021/12/23 06:58:51;;;;;;;10.27;8.07;;;0.70;99.90;;;;;;5085749;28;20471;-55
2021/12/23 07:01:20;;;;;;;16.70;7.43;;;0.70;99.90;;;;;;5085767;28;20426;-60
2021/12/23 07:04:04;;;;;;;21.23;8.40;;;0.70;99.90;;;;;;5086201;28;20481;-60
2021/12/23 07:06:32;;;;;;;16.20;6.73;;;0.60;99.90;;;;;;5086406;28;20469;-58
2021/12/23 07:09:02;;;;;;;12.23;6.73;;;0.70;99.90;;;;;;5085868;28;20478;-59
2021/12/23 07:11:28;;;;;;;19.93;8.17;;;0.70;99.90;;;;;;5085729;28;20490;-59
2021/12/23 07:13:55;;;;;;;13.67;6.63;;;0.70;99.90;;;;;;5084704;28;20444;-56
2021/12/23 07:16:22;;;;;;;12.80;4.67;;;0.80;99.90;;;;;;5084615;28;20449;-57
2021/12/23 07:18:49;;;;;;;13.07;7.23;;;0.90;99.90;;;;;;5084230;28;20461;-57
2021/12/23 07:21:15;;;;;;;16.13;6.60;;;0.90;99.90;;;;;;5085010;28;20474;-61
2021/12/23 07:23:42;;;;;;;11.30;6.10;;;0.90;99.90;;;;;;5085225;28;20678;-59
2021/12/23 07:26:10;;;;;;;14.50;7.60;;;0.90;99.90;;;;;;5086001;28;20496;-62
2021/12/23 07:28:37;;;;;;;14.23;7.63;;;0.90;99.90;;;;;;5088252;28;20454;-60
2021/12/23 07:31:04;;;;;;;14.87;8.63;;;0.90;99.90;;;;;;5088139;28;20825;-60
2021/12/23 07:33:30;;;;;;;15.87;8.07;;;0.90;99.90;;;;;;5089233;28;20426;-65
2021/12/23 07:35:57;;;;;;;9.63;5.30;;;0.80;99.90;;;;;;5089398;28;20449;-60
2021/12/23 07:38:24;;;;;;;14.17;5.90;;;0.80;99.90;;;;;;5089627;28;20450;-57
2021/12/23 07:40:50;;;;;;;14.93;7.50;;;0.70;99.90;;;;;;5089527;28;20443;-57
2021/12/23 07:43:31;;;;;;;11.60;7.10;;;0.80;99.90;;;;;;5088776;28;20466;-57
2021/12/23 07:45:59;;;;;;;19.73;8.80;;;0.80;99.90;;;;;;5088569;28;20435;-60
2021/12/23 07:48:25;;;;;;;6.23;4.23;;;0.80;99.90;;;;;;5087957;28;20501;-60
2021/12/23 07:50:53;;;;;;;17.23;7.73;;;0.80;99.90;;;;;;5087831;28;20446;-61
2021/12/23 07:53:20;;;;;;;12.67;7.10;;;0.80;99.90;;;;;;5088273;28;20503;-60
2021/12/23 07:55:47;;;;;;;10.77;6.97;;;0.70;99.90;;;;;;5089047;28;20439;-61
2021/12/23 07:58:14;;;;;;;15.17;8.00;;;0.60;99.90;;;;;;5089130;28;20456;-58
2021/12/23 08:00:43;;;;;;;9.23;5.13;;;0.70;99.90;;;;;;5088856;28;20443;-60
2021/12/23 08:03:09;;;;;;;10.07;4.90;;;0.70;99.90;;;;;;5089322;28;20471;-52
2021/12/23 08:05:36;;;;;;;11.77;5.83;;;0.60;99.90;;;;;;5088846;28;20471;-59
2021/12/23 08:08:04;;;;;;;14.97;6.97;;;0.60;99.90;;;;;;5089141;28;20539;-59
2021/12/23 08:10:30;;;;;;;10.47;5.57;;;0.70;99.90;;;;;;5088655;28;20473;-60
2021/12/23 08:12:57;;;;;;;16.80;7.17;;;0.70;99.90;;;;;;5088997;28;20443;-60
2021/12/23 08:15:24;;;;;;;8.60;5.57;;;0.70;99.90;;;;;;5088685;28;20468;-60
2021/12/23 08:17:52;;;;;;;12.27;5.63;;;0.70;99.90;;;;;;5088380;28;20430;-60
2021/12/23 08:20:19;;;;;;;7.90;5.20;;;0.70;99.90;;;;;;5087936;28;20444;-59
2021/12/23 08:22:46;;;;;;;10.43;5.20;;;0.80;99.90;;;;;;5087182;28;20489;-61
2021/12/23 08:25:14;;;;;;;19.63;7.13;;;0.80;99.90;;;;;;5087611;28;20469;-60
2021/12/23 08:27:42;;;;;;;12.27;6.80;;;0.80;99.90;;;;;;5087872;28;20526;-57
2021/12/23 08:30:12;;;;;;;14.67;7.43;;;0.80;99.90;;;;;;5087327;28;20445;-60
2021/12/23 08:32:39;;;;;;;12.30;6.33;;;0.80;99.90;;;;;;5086710;28;20965;-58
2021/12/23 08:35:08;;;;;;;15.83;7.83;;;0.80;99.90;;;;;;5086522;28;20442;-58
2021/12/23 08:37:35;;;;;;;14.03;7.20;;;0.80;99.90;;;;;;5086847;28;20451;-53
2021/12/23 08:40:02;;;;;;;13.37;6.60;;;0.90;99.90;;;;;;5087281;28;20455;-60
2021/12/23 08:42:29;;;;;;;17.47;8.60;;;0.90;99.90;;;;;;5087495;28;20450;-60
2021/12/23 08:44:55;;;;;;;10.77;5.13;;;0.90;99.90;;;;;;5087652;28;20479;-60
2021/12/23 08:47:22;;;;;;;12.50;6.90;;;0.90;99.90;;;;;;5087438;28;20493;-60
2021/12/23 08:49:51;;;;;;;14.90;8.27;;;0.90;99.90;;;;;;5087553;28;20467;-61
2021/12/23 08:52:19;;;;;;;11.43;5.37;;;0.90;99.90;;;;;;5087086;28;20453;-60
2021/12/23 08:54:45;;;;;;;11.03;5.00;;;0.80;99.90;;;;;;5087117;28;20474;-59
2021/12/23 08:57:12;;;;;;;8.40;4.53;;;0.90;99.90;;;;;;5087204;28;20443;-61
2021/12/23 08:59:39;;;;;;;46.23;6.80;;;0.50;99.90;;;;;;5086618;28;20443;-60
2021/12/23 09:02:07;;;;;;;16.83;7.30;;;1.00;99.90;;;;;;5087730;28;20450;-60
2021/12/23 09:04:34;;;;;;;13.73;9.30;;;0.90;99.90;;;;;;5087668;28;20451;-60
2021/12/23 09:07:00;;;;;;;16.17;7.70;;;1.00;99.90;;;;;;5087141;28;20486;-59
2021/12/23 09:09:32;;;;;;;12.03;7.30;;;1.10;99.90;;;;;;5086080;28;20450;-59
2021/12/23 09:11:59;;;;;;;15.13;6.33;;;1.10;99.90;;;;;;5086037;28;20807;-57
2021/12/23 09:14:26;;;;;;;12.27;6.00;;;1.10;99.90;;;;;;5086599;28;20477;-59
2021/12/23 09:16:53;;;;;;;11.20;5.90;;;1.10;99.90;;;;;;5087208;28;20445;-59
2021/12/23 09:19:20;;;;;;;19.70;7.00;;;1.10;99.90;;;;;;5086697;28;20476;-59
2021/12/23 09:21:48;;;;;;;40.23;7.93;;;1.30;99.90;;;;;;5085731;28;20457;-56
2021/12/23 09:24:15;;;;;;;11.13;5.17;;;1.20;99.90;;;;;;5085481;28;20462;-59
2021/12/23 09:26:50;;;;;;;21.67;9.50;;;1.20;99.90;;;;;;5085699;28;20450;-59
2021/12/23 09:32:40;;;;;;;14.07;7.80;;;1.20;99.90;;;;;;5085100;28;20493;-55
2021/12/23 09:34:50;;;;;;;15.30;6.83;;;1.10;99.90;;;;;;5085630;28;20484;-61
2021/12/23 09:37:18;;;;;;;13.50;6.37;;;1.10;99.90;;;;;;5085969;28;20521;-60
2021/12/23 09:39:53;;;;;;;10.47;6.80;;;1.10;99.90;;;;;;5085884;28;20474;-59
2021/12/23 09:42:25;;;;;;;11.40;7.40;;;1.20;99.90;;;;;;5086418;28;20435;-60
2021/12/23 09:44:56;;;;;;;24.97;6.40;;;1.20;99.90;;;;;;5086780;28;20462;-57
2021/12/23 09:47:26;;;;;;;13.53;6.57;;;1.20;99.90;;;;;;5085990;28;20470;-60
2021/12/23 09:49:53;;;;;;;15.07;7.75;;;1.20;99.90;;;;;;5087905;28;20472;-45
2021/12/23 09:52:22;;;;;;;16.50;7.13;;;1.30;99.90;;;;;;5097414;28;20206;-54
2021/12/23 09:54:50;;;;;;;14.23;7.53;;;1.40;99.90;;;;;;5096275;28;20498;-46
2021/12/23 09:57:19;;;;;;;7.80;6.17;;;1.40;99.90;;;;;;5094458;28;20776;-51
2021/12/23 09:59:47;;;;;;;10.20;6.73;;;1.30;99.90;;;;;;5094977;28;20446;-47
2021/12/23 10:02:14;;;;;;;20.73;7.10;;;1.20;99.90;;;;;;5094340;28;20471;-45
2021/12/23 10:04:41;;;;;;;11.83;6.67;;;1.10;99.90;;;;;;5094065;28;20429;-47
2021/12/23 10:07:08;;;;;;;9.63;6.67;;;1.10;99.90;;;;;;5093845;28;20477;-53
2021/12/23 10:09:46;;;;;;;7.93;6.27;;;1.10;99.90;;;;;;5094326;28;20457;-52
2021/12/23 10:32:14;;;;;;;9.83;7.03;;;1.20;99.90;;;;;;5094053;28;20489;-46
2021/12/23 10:37:26;;;;;;;15.33;7.03;;;1.40;99.90;;;;;;5093629;28;20414;-48
2021/12/23 10:40:08;;;;;;;13.73;6.90;;;1.50;99.90;;;;;;5093370;28;20467;-48
2021/12/23 10:42:35;;;;;;;15.10;4.90;;;1.50;99.90;;;;;;5093249;28;20458;-45
2021/12/23 10:45:07;;;;;;;19.60;8.90;;;1.40;99.90;;;;;;5093751;28;20486;-42
2021/12/23 10:47:53;;;;;;;13.60;7.03;;;1.40;99.90;;;;;;5093082;28;20460;-50
2021/12/23 10:50:27;;;;;;;9.93;7.50;;;1.40;99.90;;;;;;5092456;28;20494;-45
2021/12/23 10:52:56;;;;;;;13.20;5.30;;;1.30;99.90;;;;;;5092741;28;20437;-46
2021/12/23 10:58:15;;;;;;;11.60;5.20;;;1.40;99.90;;;;;;5093977;28;20411;-48
2021/12/23 11:00:45;;;;;;;10.10;4.77;;;1.30;99.90;;;;;;5083066;28;20478;-48
2021/12/23 11:03:18;;;;;;;12.33;6.47;;;1.40;99.90;;;;;;5087746;28;20531;-47
2021/12/23 11:05:50;;;;;;;12.53;5.90;;;1.40;99.90;;;;;;5083772;28;20469;-50
2021/12/23 11:08:26;;;;;;;8.60;5.30;;;1.40;99.90;;;;;;5098484;28;20469;-47
2021/12/23 11:27:34;;;;;;;9.97;5.60;;;1.80;99.90;;;;;;5119042;28;20910;-48
2021/12/23 11:36:01;;;;;;;8.73;6.10;;;1.70;99.90;;;;;;5119346;28;20495;-47
2021/12/23 11:38:33;;;;;;;18.10;4.53;;;1.70;99.90;;;;;;5118483;28;20506;-49
2021/12/23 11:41:06;;;;;;;23.37;5.30;;;1.70;99.90;;;;;;5119134;28;20484;-45
2021/12/23 11:46:17;;;;;;;13.10;5.10;;;1.70;99.90;;;;;;5115803;28;20449;-50
2021/12/23 11:48:46;;;;;;;9.40;5.07;;;1.70;99.90;;;;;;5118152;28;20465;-48
2021/12/23 11:51:22;;;;;;;7.40;4.57;;;1.70;99.90;;;;;;5118550;28;20516;-48
2021/12/23 11:53:49;;;;;;;12.80;6.13;;;1.80;99.90;;;;;;5118488;28;20469;-47
2021/12/23 11:56:19;;;;;;;6.10;5.20;;;1.80;99.90;;;;;;5118108;28;20453;-49
2021/12/23 11:58:47;;;;;;;12.20;6.40;;;1.90;99.90;;;;;;5118379;28;20461;-54
2021/12/23 12:01:18;;;;;;;10.13;4.27;;;1.90;99.90;;;;;;5118423;28;20429;-52
2021/12/23 12:03:58;;;;;;;8.30;4.80;;;2.00;99.90;;;;;;5118806;28;20422;-55
2021/12/23 12:06:29;;;;;;;5.40;4.90;;;2.10;99.90;;;;;;5117959;28;20432;-47
2021/12/23 12:09:09;;;;;;;9.27;4.67;;;2.20;99.90;;;;;;5117762;28;20461;-47
2021/12/23 12:11:35;;;;;;;7.63;4.93;;;2.30;99.90;;;;;;5116713;28;20845;-47
2021/12/23 12:14:02;;;;;;;5.40;3.67;;;2.40;99.90;;;;;;5117305;28;20438;-47
2021/12/23 12:16:35;;;;;;;13.83;6.47;;;2.40;99.90;;;;;;5117804;28;20463;-42
2021/12/23 12:19:02;;;;;;;9.93;5.33;;;2.40;99.90;;;;;;5117050;28;20418;-51
2021/12/23 12:21:33;;;;;;;25.13;5.47;;;2.50;99.90;;;;;;5111097;28;20507;-49
2021/12/23 12:24:15;;;;;;;12.30;5.10;;;2.60;99.90;;;;;;5114985;28;20422;-47
2021/12/23 12:26:58;;;;;;;10.03;5.50;;;2.60;99.90;;;;;;5118853;28;20414;-47
2021/12/23 12:29:36;;;;;;;6.50;4.23;;;2.60;99.90;;;;;;5118042;28;20957;-43
2021/12/23 12:32:03;;;;;;;9.20;5.50;;;2.60;99.90;;;;;;5118950;28;20449;-49
2021/12/23 12:34:35;;;;;;;10.30;5.50;;;2.70;99.90;;;;;;5118394;28;20441;-50
2021/12/23 12:37:04;;;;;;;8.30;5.60;;;2.70;99.90;;;;;;5118220;28;20450;-46
2021/12/23 12:39:36;;;;;;;4.47;3.10;;;2.70;99.90;;;;;;5118614;28;20436;-51
2021/12/23 12:42:07;;;;;;;10.93;5.40;;;2.70;99.90;;;;;;5118824;28;20442;-55
2021/12/23 12:44:48;;;;;;;12.30;5.53;;;2.60;99.90;;;;;;5119308;28;20414;-52
2021/12/23 12:47:25;;;;;;;7.53;5.60;;;2.70;99.90;;;;;;5118944;28;20437;-45
2021/12/23 12:49:54;;;;;;;18.90;8.00;;;2.70;99.90;;;;;;5118135;28;20461;-53
2021/12/23 12:52:33;;;;;;;9.70;4.97;;;2.60;99.90;;;;;;5118460;28;20497;-46
2021/12/23 12:55:03;;;;;;;12.00;5.77;;;2.60;99.90;;;;;;5118796;28;20451;-46
2021/12/23 12:57:35;;;;;;;8.77;3.80;;;2.50;99.90;;;;;;5117861;28;20464;-49
2021/12/23 13:00:18;;;;;;;10.57;6.37;;;2.50;99.90;;;;;;5118209;28;20482;-50
2021/12/23 13:02:50;;;;;;;10.07;5.30;;;2.50;99.90;;;;;;5118082;28;20483;-50
2021/12/23 13:05:16;;;;;;;13.00;5.93;;;2.50;99.90;;;;;;5117278;28;20430;-50
2021/12/23 13:07:49;;;;;;;9.20;5.80;;;2.50;99.90;;;;;;5117796;28;20446;-49
2021/12/23 13:10:20;;;;;;;10.63;5.53;;;2.50;99.90;;;;;;5117537;28;20411;-46
2021/12/23 13:12:50;;;;;;;11.80;5.80;;;2.40;99.90;;;;;;5116946;28;20464;-47
2021/12/23 13:15:20;;;;;;;17.50;5.73;;;2.40;99.90;;;;;;5117638;28;20447;-50
2021/12/23 13:17:50;;;;;;;15.40;6.13;;;2.50;99.90;;;;;;5117531;28;20448;-47
2021/12/23 13:20:18;;;;;;;9.47;5.27;;;2.50;99.90;;;;;;5117384;28;20441;-50
2021/12/23 13:22:47;;;;;;;10.87;5.30;;;2.50;99.90;;;;;;5117365;28;20442;-50
2021/12/23 13:25:14;;;;;;;9.10;5.30;;;2.40;99.90;;;;;;5117107;28;20442;-49
2021/12/23 13:27:42;;;;;;;11.03;5.30;;;2.50;99.90;;;;;;5117275;28;20473;-48
2021/12/23 13:30:11;;;;;;;7.30;4.80;;;2.40;99.90;;;;;;5117413;28;20533;-51
2021/12/23 13:32:39;;;;;;;12.43;5.90;;;2.50;99.90;;;;;;5117474;28;20426;-47
2021/12/23 13:35:11;;;;;;;10.30;6.60;;;2.50;99.90;;;;;;5117452;28;20441;-50
2021/12/23 13:37:43;;;;;;;11.00;6.90;;;2.50;99.90;;;;;;5117412;28;20472;-51
2021/12/23 13:40:13;;;;;;;6.83;4.93;;;2.50;99.90;;;;;;5117591;28;20511;-50
2021/12/23 13:42:41;;;;;;;8.97;5.27;;;2.60;99.90;;;;;;5117665;28;20540;-48
2021/12/23 13:45:09;;;;;;;13.63;7.50;;;2.60;99.90;;;;;;5117113;28;20476;-48
2021/12/23 13:47:36;;;;;;;8.00;4.93;;;2.60;99.90;;;;;;5117233;28;20444;-49
2021/12/23 13:50:04;;;;;;;13.37;6.70;;;2.70;99.90;;;;;;5116963;28;20489;-51
2021/12/23 13:52:33;;;;;;;10.57;7.60;;;2.80;99.90;;;;;;5116857;28;20445;-51
2021/12/23 13:55:02;;;;;;;9.90;5.97;;;2.80;99.90;;;;;;5116595;28;20477;-46
2021/12/23 13:57:34;;;;;;;11.93;6.43;;;2.80;99.90;;;;;;5116609;28;20467;-49
2021/12/23 14:00:03;;;;;;;11.40;6.63;;;2.80;99.90;;;;;;5117083;28;20534;-45
2021/12/23 14:02:30;;;;;;;7.80;5.40;;;2.70;99.90;;;;;;5116634;28;20454;-50
2021/12/23 14:05:01;;;;;;;15.13;7.03;;;2.70;99.90;;;;;;5116155;28;20469;-45
2021/12/23 14:07:29;;;;;;;11.20;6.43;;;2.80;99.90;;;;;;5116481;28;20445;-50
2021/12/23 14:09:59;;;;;;;16.50;7.17;;;2.70;99.90;;;;;;5115879;28;20469;-50
2021/12/23 14:12:45;;;;;;;9.93;6.53;;;2.80;99.90;;;;;;5116637;28;20442;-44
2021/12/23 14:15:14;;;;;;;14.80;8.10;;;2.80;99.90;;;;;;5116267;28;20478;-42